createdAt,value
2023-01-10T06:17:52.793Z,4.55
2023-01-10T06:27:52.813Z,4.70
2023-01-10T06:37:52.850Z,4.80
2023-01-10T06:47:53.029Z,4.81
2023-01-10T06:57:52.914Z,4.68
2023-01-10T07:07:53.090Z,4.52
2023-01-10T07:17:53.117Z,4.41
2023-01-10T07:27:53.038Z,4.49
2023-01-10T07:37:53.102Z,4.65
2023-01-10T07:47:52.966Z,4.64
2023-01-10T07:57:52.999Z,4.59
2023-01-10T08:07:53.064Z,4.62
2023-01-10T08:17:53.003Z,4.62
2023-01-10T08:27:53.111Z,4.67
2023-01-10T08:37:53.172Z,4.80
2023-01-10T08:47:53.310Z,4.90
2023-01-10T08:57:53.448Z,5.29
2023-01-10T09:07:53.528Z,5.46
2023-01-10T09:17:53.727Z,5.50
2023-01-10T09:27:53.406Z,5.63
2023-01-10T09:37:53.413Z,5.85
2023-01-10T09:47:53.475Z,5.86
2023-01-10T09:57:53.534Z,6.03
2023-01-10T10:07:53.513Z,6.09
2023-01-10T10:17:53.522Z,6.10
2023-01-10T10:27:53.450Z,6.09
2023-01-10T10:37:53.465Z,6.21
2023-01-10T10:47:53.504Z,6.27
2023-01-10T10:58:00.563Z,6.37
2023-01-10T11:07:53.637Z,6.47
2023-01-10T11:17:53.469Z,6.52
2023-01-10T11:27:53.514Z,6.46
2023-01-10T11:37:53.406Z,6.49
2023-01-10T11:47:53.499Z,6.46
2023-01-10T11:57:53.584Z,6.47
2023-01-10T12:07:53.799Z,6.54
2023-01-10T12:17:53.461Z,6.51
2023-01-10T12:27:53.306Z,6.51
2023-01-10T12:37:53.369Z,6.54
2023-01-10T12:47:53.479Z,6.71
2023-01-10T12:57:53.413Z,6.64
2023-01-10T13:07:53.489Z,6.63
2023-01-10T13:17:53.506Z,6.59
2023-01-10T13:27:53.401Z,6.54
2023-01-10T13:37:53.427Z,6.49
2023-01-10T13:47:53.441Z,6.60
2023-01-10T13:57:53.435Z,6.55
2023-01-10T14:07:53.471Z,6.37
2023-01-10T14:17:53.481Z,6.31
2023-01-10T14:27:53.542Z,6.33
2023-01-10T14:37:53.553Z,6.35
2023-01-10T14:47:53.627Z,6.50
2023-01-10T14:57:53.462Z,6.36
2023-01-10T15:07:53.520Z,6.16
2023-01-10T15:17:53.569Z,6.07
2023-01-10T15:27:53.585Z,5.93
2023-01-10T15:37:53.575Z,5.95
2023-01-10T15:47:53.674Z,5.71
2023-01-10T15:57:53.579Z,5.61
2023-01-10T16:07:53.573Z,5.55
2023-01-10T16:17:53.670Z,5.54
2023-01-10T16:27:53.720Z,5.53
2023-01-10T16:37:53.689Z,5.55
2023-01-10T16:47:53.825Z,5.71
2023-01-10T16:57:53.714Z,5.68
2023-01-10T17:07:53.738Z,5.60
2023-01-10T17:17:53.634Z,5.58
2023-01-10T17:27:53.659Z,5.42
2023-01-10T17:37:53.625Z,5.02
2023-01-10T17:47:53.866Z,5.18
2023-01-10T17:57:53.755Z,5.30
2023-01-10T18:07:53.736Z,5.18
2023-01-10T18:17:53.764Z,5.26
2023-01-10T18:27:53.946Z,5.37
2023-01-10T18:37:54.297Z,5.36
2023-01-10T18:47:53.734Z,5.45
2023-01-10T18:57:53.873Z,5.55
2023-01-10T19:07:53.830Z,5.53
2023-01-10T19:17:53.964Z,5.67
